sensor_id;sensor_type;location;lat;lon;timestamp;pressure;altitude;pressure_sealevel;temperature;humidity
3780;BME280;1905;52.482;9.802;2022-12-16T00:01:14;100607.97;;;-5.75;87.03
3780;BME280;1905;52.482;9.802;2022-12-16T00:03:47;100614.81;;;-5.77;87.09
3780;BME280;1905;52.482;9.802;2022-12-16T00:06:18;100617.25;;;-5.83;87.54
3780;BME280;1905;52.482;9.802;2022-12-16T00:08:47;100619.09;;;-5.76;87.04
3780;BME280;1905;52.482;9.802;2022-12-16T00:11:14;100620.63;;;-5.84;87.21
3780;BME280;1905;52.482;9.802;2022-12-16T00:13:42;100617.22;;;-5.86;87.49
3780;BME280;1905;52.482;9.802;2022-12-16T00:16:11;100619.06;;;-5.79;87.23
3780;BME280;1905;52.482;9.802;2022-12-16T00:18:40;100619.06;;;-5.79;86.98
3780;BME280;1905;52.482;9.802;2022-12-16T00:21:09;100612.81;;;-5.91;87.27
3780;BME280;1905;52.482;9.802;2022-12-16T00:23:37;100613.63;;;-5.94;87.31
3780;BME280;1905;52.482;9.802;2022-12-16T00:26:07;100607.59;;;-5.96;87.33
3780;BME280;1905;52.482;9.802;2022-12-16T00:28:36;100614.50;;;-5.92;87.17
3780;BME280;1905;52.482;9.802;2022-12-16T00:31:04;100617.13;;;-5.89;86.64
3780;BME280;1905;52.482;9.802;2022-12-16T00:33:32;100622.19;;;-5.93;87.09
3780;BME280;1905;52.482;9.802;2022-12-16T00:36:01;100615.97;;;-6.05;87.57
3780;BME280;1905;52.482;9.802;2022-12-16T00:38:29;100618.53;;;-6.03;87.70
3780;BME280;1905;52.482;9.802;2022-12-16T00:40:57;100623.50;;;-6.12;87.71
3780;BME280;1905;52.482;9.802;2022-12-16T00:43:25;100623.50;;;-6.12;87.50
3780;BME280;1905;52.482;9.802;2022-12-16T00:45:52;100623.38;;;-6.18;87.84
3780;BME280;1905;52.482;9.802;2022-12-16T00:48:20;100618.38;;;-6.11;87.29
3780;BME280;1905;52.482;9.802;2022-12-16T00:50:50;100613.38;;;-6.06;87.21
3780;BME280;1905;52.482;9.802;2022-12-16T00:53:21;100619.81;;;-6.23;87.44
3780;BME280;1905;52.482;9.802;2022-12-16T00:55:51;100621.53;;;-6.22;87.21
3780;BME280;1905;52.482;9.802;2022-12-16T00:58:19;100625.78;;;-6.24;87.62
3780;BME280;1905;52.482;9.802;2022-12-16T01:00:46;100633.50;;;-6.24;87.66
3780;BME280;1905;52.482;9.802;2022-12-16T01:03:14;100628.50;;;-6.18;87.32
3780;BME280;1905;52.482;9.802;2022-12-16T01:05:47;100625.78;;;-6.26;87.48
3780;BME280;1905;52.482;9.802;2022-12-16T01:08:15;100636.00;;;-6.27;87.22
3780;BME280;1905;52.482;9.802;2022-12-16T01:10:48;100632.44;;;-6.34;87.52
3780;BME280;1905;52.482;9.802;2022-12-16T01:13:19;100636.63;;;-6.37;87.54
3780;BME280;1905;52.482;9.802;2022-12-16T01:15:47;100634.84;;;-6.40;87.46
3780;BME280;1905;52.482;9.802;2022-12-16T01:18:16;100637.31;;;-6.44;87.95
3780;BME280;1905;52.482;9.802;2022-12-16T01:20:44;100649.53;;;-6.34;87.17
3780;BME280;1905;52.482;9.802;2022-12-16T01:23:11;100646.75;;;-6.43;87.61
3780;BME280;1905;52.482;9.802;2022-12-16T01:25:39;100649.22;;;-6.46;87.70
3780;BME280;1905;52.482;9.802;2022-12-16T01:28:06;100650.16;;;-6.44;87.60
3780;BME280;1905;52.482;9.802;2022-12-16T01:30:35;100660.31;;;-6.49;87.90
3780;BME280;1905;52.482;9.802;2022-12-16T01:33:03;100658.47;;;-6.54;87.90
3780;BME280;1905;52.482;9.802;2022-12-16T01:35:30;100656.69;;;-6.57;88.22
3780;BME280;1905;52.482;9.802;2022-12-16T01:38:18;100664.44;;;-6.55;87.76
3780;BME280;1905;52.482;9.802;2022-12-16T01:40:45;100664.53;;;-6.51;87.40
3780;BME280;1905;52.482;9.802;2022-12-16T01:43:13;100669.44;;;-6.60;87.43
3780;BME280;1905;52.482;9.802;2022-12-16T01:45:42;100670.16;;;-6.66;87.81
3780;BME280;1905;52.482;9.802;2022-12-16T01:48:18;100671.03;;;-6.65;87.86
3780;BME280;1905;52.482;9.802;2022-12-16T01:50:47;100664.97;;;-6.69;88.12
3780;BME280;1905;52.482;9.802;2022-12-16T01:53:18;100666.69;;;-6.68;87.79
3780;BME280;1905;52.482;9.802;2022-12-16T01:55:47;100670.94;;;-6.70;87.82
3780;BME280;1905;52.482;9.802;2022-12-16T01:58:19;100668.19;;;-6.76;87.53
3780;BME280;1905;52.482;9.802;2022-12-16T02:00:49;100665.69;;;-6.74;87.96
3780;BME280;1905;52.482;9.802;2022-12-16T02:03:19;100664.75;;;-6.78;88.10
3780;BME280;1905;52.482;9.802;2022-12-16T02:05:48;100663.00;;;-6.79;87.96
3780;BME280;1905;52.482;9.802;2022-12-16T02:08:18;100664.56;;;-6.84;87.83
3780;BME280;1905;52.482;9.802;2022-12-16T02:10:57;100662.81;;;-6.85;87.77
3780;BME280;1905;52.482;9.802;2022-12-16T02:13:34;100669.72;;;-6.84;87.70
3780;BME280;1905;52.482;9.802;2022-12-16T02:16:11;100673.94;;;-6.86;87.86
3780;BME280;1905;52.482;9.802;2022-12-16T02:18:50;100671.28;;;-6.89;87.71
3780;BME280;1905;52.482;9.802;2022-12-16T02:21:31;100669.53;;;-6.90;87.78
3780;BME280;1905;52.482;9.802;2022-12-16T02:24:27;100670.31;;;-6.94;87.83
3780;BME280;1905;52.482;9.802;2022-12-16T02:30:04;100674.47;;;-6.99;87.82
3780;BME280;1905;52.482;9.802;2022-12-16T02:32:42;100676.22;;;-6.96;87.56
3780;BME280;1905;52.482;9.802;2022-12-16T02:35:21;100676.16;;;-6.99;87.85
3780;BME280;1905;52.482;9.802;2022-12-16T02:37:56;100672.72;;;-7.00;87.75
3780;BME280;1905;52.482;9.802;2022-12-16T02:40:32;100671.81;;;-7.02;87.59
3780;BME280;1905;52.482;9.802;2022-12-16T02:43:06;100671.72;;;-7.05;87.78
3780;BME280;1905;52.482;9.802;2022-12-16T02:45:35;100680.28;;;-7.04;87.16
3780;BME280;1905;52.482;9.802;2022-12-16T02:48:04;100672.47;;;-7.09;87.50
3780;BME280;1905;52.482;9.802;2022-12-16T02:50:35;100671.63;;;-7.08;87.71
3780;BME280;1905;52.482;9.802;2022-12-16T02:53:05;100672.47;;;-7.09;87.49
3780;BME280;1905;52.482;9.802;2022-12-16T02:55:43;100672.47;;;-7.09;87.66
3780;BME280;1905;52.482;9.802;2022-12-16T02:58:18;100672.31;;;-7.15;87.78
3780;BME280;1905;52.482;9.802;2022-12-16T03:00:55;100669.81;;;-7.12;87.64
3780;BME280;1905;52.482;9.802;2022-12-16T03:03:32;100679.09;;;-7.17;87.63
3780;BME280;1905;52.482;9.802;2022-12-16T03:06:04;100672.22;;;-7.18;87.41
3780;BME280;1905;52.482;9.802;2022-12-16T03:08:35;100670.41;;;-7.22;87.76
3780;BME280;1905;52.482;9.802;2022-12-16T03:11:05;100674.66;;;-7.22;87.81
3780;BME280;1905;52.482;9.802;2022-12-16T03:13:36;100675.63;;;-7.19;87.28
3780;BME280;1905;52.482;9.802;2022-12-16T03:16:08;100675.53;;;-7.22;87.70
3780;BME280;1905;52.482;9.802;2022-12-16T03:18:41;100681.44;;;-7.25;87.67
3780;BME280;1905;52.482;9.802;2022-12-16T03:21:11;100672.06;;;-7.24;87.31
3780;BME280;1905;52.482;9.802;2022-12-16T03:23:45;100682.22;;;-7.27;87.53
3780;BME280;1905;52.482;9.802;2022-12-16T03:26:16;100681.44;;;-7.25;87.73
3780;BME280;1905;52.482;9.802;2022-12-16T03:28:49;100680.47;;;-7.28;87.41
3780;BME280;1905;52.482;9.802;2022-12-16T03:31:26;100687.34;;;-7.29;87.55
3780;BME280;1905;52.482;9.802;2022-12-16T03:34:02;100687.19;;;-7.33;87.46
3780;BME280;1905;52.482;9.802;2022-12-16T03:36:34;100697.44;;;-7.33;87.50
3780;BME280;1905;52.482;9.802;2022-12-16T03:39:04;100689.75;;;-7.33;87.33
3780;BME280;1905;52.482;9.802;2022-12-16T03:41:33;100690.50;;;-7.37;87.19
3780;BME280;1905;52.482;9.802;2022-12-16T03:44:02;100688.84;;;-7.35;87.30
3780;BME280;1905;52.482;9.802;2022-12-16T03:46:30;100690.50;;;-7.37;87.10
3780;BME280;1905;52.482;9.802;2022-12-16T03:48:59;100682.75;;;-7.39;87.54
3780;BME280;1905;52.482;9.802;2022-12-16T03:51:27;100681.03;;;-7.40;87.09
3780;BME280;1905;52.482;9.802;2022-12-16T03:53:55;100685.19;;;-7.43;87.42
3780;BME280;1905;52.482;9.802;2022-12-16T03:56:23;100683.44;;;-7.44;87.49
3780;BME280;1905;52.482;9.802;2022-12-16T03:58:50;100688.56;;;-7.46;87.49
3780;BME280;1905;52.482;9.802;2022-12-16T04:01:18;100688.56;;;-7.44;87.24
3780;BME280;1905;52.482;9.802;2022-12-16T04:03:45;100688.50;;;-7.47;87.37
3780;BME280;1905;52.482;9.802;2022-12-16T04:06:14;100686.69;;;-7.51;86.98
3780;BME280;1905;52.482;9.802;2022-12-16T04:08:44;100686.78;;;-7.48;87.14
3780;BME280;1905;52.482;9.802;2022-12-16T04:11:12;100685.03;;;-7.49;87.39
3780;BME280;1905;52.482;9.802;2022-12-16T04:13:58;100686.59;;;-7.54;87.30
3780;BME280;1905;52.482;9.802;2022-12-16T04:16:43;100692.53;;;-7.55;87.57
3780;BME280;1905;52.482;9.802;2022-12-16T04:19:31;100683.13;;;-7.56;87.36
3780;BME280;1905;52.482;9.802;2022-12-16T04:22:23;100681.38;;;-7.57;87.51
3780;BME280;1905;52.482;9.802;2022-12-16T04:25:12;100688.06;;;-7.62;87.00
3780;BME280;1905;52.482;9.802;2022-12-16T04:27:41;100686.41;;;-7.60;87.65
3780;BME280;1905;52.482;9.802;2022-12-16T04:30:13;100688.94;;;-7.62;86.97
3780;BME280;1905;52.482;9.802;2022-12-16T04:32:54;100698.22;;;-7.65;87.21
3780;BME280;1905;52.482;9.802;2022-12-16T04:35:41;100692.22;;;-7.66;87.60
3780;BME280;1905;52.482;9.802;2022-12-16T04:38:36;100701.53;;;-7.69;87.29
3780;BME280;1905;52.482;9.802;2022-12-16T04:41:25;100705.88;;;-7.67;86.97
3780;BME280;1905;52.482;9.802;2022-12-16T04:44:10;100720.28;;;-7.70;87.07
3780;BME280;1905;52.482;9.802;2022-12-16T04:46:56;100721.06;;;-7.73;87.04
3780;BME280;1905;52.482;9.802;2022-12-16T04:49:41;100713.34;;;-7.74;87.08
3780;BME280;1905;52.482;9.802;2022-12-16T04:52:26;100715.81;;;-7.77;87.43
3780;BME280;1905;52.482;9.802;2022-12-16T04:55:13;100719.16;;;-7.80;86.92
3780;BME280;1905;52.482;9.802;2022-12-16T04:57:59;100721.66;;;-7.81;87.38
3780;BME280;1905;52.482;9.802;2022-12-16T05:00:46;100727.59;;;-7.82;87.50
3780;BME280;1905;52.482;9.802;2022-12-16T05:03:33;100724.28;;;-7.80;87.48
3780;BME280;1905;52.482;9.802;2022-12-16T05:06:19;100732.69;;;-7.84;86.88
3780;BME280;1905;52.482;9.802;2022-12-16T05:09:04;100728.44;;;-7.83;87.28
3780;BME280;1905;52.482;9.802;2022-12-16T05:12:06;100734.38;;;-7.85;87.38
3780;BME280;1905;52.482;9.802;2022-12-16T05:14:51;100738.69;;;-7.83;87.11
3780;BME280;1905;52.482;9.802;2022-12-16T05:17:36;100738.50;;;-7.90;87.07
3780;BME280;1905;52.482;9.802;2022-12-16T05:20:22;100730.91;;;-7.87;87.33
3780;BME280;1905;52.482;9.802;2022-12-16T05:23:07;100738.50;;;-7.90;87.15
3780;BME280;1905;52.482;9.802;2022-12-16T05:26:01;100743.63;;;-7.90;87.28
3780;BME280;1905;52.482;9.802;2022-12-16T05:28:47;100743.50;;;-7.93;86.90
3780;BME280;1905;52.482;9.802;2022-12-16T05:31:32;100743.50;;;-7.93;87.29
3780;BME280;1905;52.482;9.802;2022-12-16T05:34:18;100745.97;;;-7.96;87.38
3780;BME280;1905;52.482;9.802;2022-12-16T05:37:14;100753.66;;;-7.96;87.19
3780;BME280;1905;52.482;9.802;2022-12-16T05:40:00;100760.44;;;-7.98;87.22
3780;BME280;1905;52.482;9.802;2022-12-16T05:42:46;100759.56;;;-7.98;86.77
3780;BME280;1905;52.482;9.802;2022-12-16T05:45:32;100766.38;;;-7.99;86.76
3780;BME280;1905;52.482;9.802;2022-12-16T05:48:18;100781.72;;;-8.00;87.33
3780;BME280;1905;52.482;9.802;2022-12-16T05:51:05;100777.47;;;-8.00;86.72
3780;BME280;1905;52.482;9.802;2022-12-16T05:53:50;100781.56;;;-8.05;87.35
3780;BME280;1905;52.482;9.802;2022-12-16T05:56:49;100783.28;;;-8.04;87.36
3780;BME280;1905;52.482;9.802;2022-12-16T05:59:35;100790.97;;;-8.04;86.69
3780;BME280;1905;52.482;9.802;2022-12-16T06:02:21;100787.41;;;-8.09;87.17
3780;BME280;1905;52.482;9.802;2022-12-16T06:05:09;100792.63;;;-8.06;87.51
3780;BME280;1905;52.482;9.802;2022-12-16T06:07:54;100807.00;;;-8.09;87.17
3780;BME280;1905;52.482;9.802;2022-12-16T06:10:39;100804.41;;;-8.11;86.75
3780;BME280;1905;52.482;9.802;2022-12-16T06:13:24;100811.19;;;-8.13;86.86
3780;BME280;1905;52.482;9.802;2022-12-16T06:16:09;100810.41;;;-8.10;87.00
3780;BME280;1905;52.482;9.802;2022-12-16T06:19:01;100814.66;;;-8.11;86.92
3780;BME280;1905;52.482;9.802;2022-12-16T06:21:46;100823.03;;;-8.15;87.03
3780;BME280;1905;52.482;9.802;2022-12-16T06:24:31;100826.47;;;-8.14;86.70
3780;BME280;1905;52.482;9.802;2022-12-16T06:27:16;100829.81;;;-8.17;87.08
3780;BME280;1905;52.482;9.802;2022-12-16T06:30:02;100841.69;;;-8.19;86.61
3780;BME280;1905;52.482;9.802;2022-12-16T06:32:47;100849.44;;;-8.17;86.45
3780;BME280;1905;52.482;9.802;2022-12-16T06:35:34;100849.31;;;-8.20;86.53
3780;BME280;1905;52.482;9.802;2022-12-16T06:38:19;100851.84;;;-8.22;86.80
3780;BME280;1905;52.482;9.802;2022-12-16T06:41:04;100853.59;;;-8.21;86.92
3780;BME280;1905;52.482;9.802;2022-12-16T06:43:49;100861.16;;;-8.24;86.24
3780;BME280;1905;52.482;9.802;2022-12-16T06:46:34;100862.88;;;-8.23;86.82
3780;BME280;1905;52.482;9.802;2022-12-16T06:49:19;100867.97;;;-8.24;86.98
3780;BME280;1905;52.482;9.802;2022-12-16T06:52:06;100867.91;;;-8.27;86.96
3780;BME280;1905;52.482;9.802;2022-12-16T06:54:51;100873.00;;;-8.27;86.63
3780;BME280;1905;52.482;9.802;2022-12-16T06:57:36;100884.13;;;-8.27;86.95
3780;BME280;1905;52.482;9.802;2022-12-16T07:00:21;100883.94;;;-8.31;86.79
3780;BME280;1905;52.482;9.802;2022-12-16T07:03:07;100883.91;;;-8.33;87.28
3780;BME280;1905;52.482;9.802;2022-12-16T07:05:54;100897.63;;;-8.31;86.54
3780;BME280;1905;52.482;9.802;2022-12-16T07:08:41;100894.97;;;-8.34;86.65
3780;BME280;1905;52.482;9.802;2022-12-16T07:11:26;100896.75;;;-8.31;86.85
3780;BME280;1905;52.482;9.802;2022-12-16T07:14:11;100902.63;;;-8.34;86.23
3780;BME280;1905;52.482;9.802;2022-12-16T07:16:57;100912.03;;;-8.34;86.33
3780;BME280;1905;52.482;9.802;2022-12-16T07:19:43;100910.28;;;-8.35;86.80
3780;BME280;1905;52.482;9.802;2022-12-16T07:22:28;100918.00;;;-8.34;86.67
3780;BME280;1905;52.482;9.802;2022-12-16T07:25:21;100910.16;;;-8.38;86.34
3780;BME280;1905;52.482;9.802;2022-12-16T07:28:06;100920.53;;;-8.35;87.04
3780;BME280;1905;52.482;9.802;2022-12-16T07:30:51;100923.13;;;-8.34;86.36
3780;BME280;1905;52.482;9.802;2022-12-16T07:33:36;100926.56;;;-8.33;86.89
3780;BME280;1905;52.482;9.802;2022-12-16T07:36:21;100932.56;;;-8.33;86.59
3780;BME280;1905;52.482;9.802;2022-12-16T07:39:06;100941.88;;;-8.35;87.00
3780;BME280;1905;52.482;9.802;2022-12-16T07:41:53;100947.00;;;-8.35;86.48
3780;BME280;1905;52.482;9.802;2022-12-16T07:44:38;100947.97;;;-8.31;86.72
3780;BME280;1905;52.482;9.802;2022-12-16T07:47:23;100944.47;;;-8.33;87.08
3780;BME280;1905;52.482;9.802;2022-12-16T07:50:08;100963.44;;;-8.28;86.68
3780;BME280;1905;52.482;9.802;2022-12-16T07:52:54;100962.59;;;-8.29;86.83
3780;BME280;1905;52.482;9.802;2022-12-16T07:55:39;100968.72;;;-8.24;86.35
3780;BME280;1905;52.482;9.802;2022-12-16T07:58:26;100971.25;;;-8.24;87.39
3780;BME280;1905;52.482;9.802;2022-12-16T08:01:12;100976.50;;;-8.21;87.32
3780;BME280;1905;52.482;9.802;2022-12-16T08:03:57;100971.47;;;-8.18;87.27
3780;BME280;1905;52.482;9.802;2022-12-16T08:06:43;100976.56;;;-8.18;87.08
3780;BME280;1905;52.482;9.802;2022-12-16T08:09:28;100977.72;;;-8.10;87.15
3780;BME280;1905;52.482;9.802;2022-12-16T08:12:13;100984.22;;;-7.96;86.70
3780;BME280;1905;52.482;9.802;2022-12-16T08:15:00;100994.44;;;-7.96;86.43
3780;BME280;1905;52.482;9.802;2022-12-16T08:17:47;100985.97;;;-7.95;86.34
3780;BME280;1905;52.482;9.802;2022-12-16T08:20:34;100989.78;;;-7.83;86.00
3780;BME280;1905;52.482;9.802;2022-12-16T08:23:21;100995.88;;;-7.80;86.92
3780;BME280;1905;52.482;9.802;2022-12-16T08:26:06;101006.38;;;-7.72;86.76
3780;BME280;1905;52.482;9.802;2022-12-16T08:28:51;101002.31;;;-7.66;86.83
3780;BME280;1905;52.482;9.802;2022-12-16T08:31:58;101013.34;;;-7.68;86.93
3780;BME280;1905;52.482;9.802;2022-12-16T08:34:43;101014.59;;;-7.57;87.23
3780;BME280;1905;52.482;9.802;2022-12-16T08:37:29;101025.16;;;-7.48;88.04
3780;BME280;1905;52.482;9.802;2022-12-16T08:40:14;101032.34;;;-7.38;88.80
3780;BME280;1905;52.482;9.802;2022-12-16T08:43:02;101027.31;;;-7.35;88.09
3780;BME280;1905;52.482;9.802;2022-12-16T08:45:47;101034.47;;;-7.25;88.01
3780;BME280;1905;52.482;9.802;2022-12-16T08:48:33;101036.44;;;-7.18;89.05
3780;BME280;1905;52.482;9.802;2022-12-16T08:51:17;101037.50;;;-7.11;89.85
3780;BME280;1905;52.482;9.802;2022-12-16T08:54:03;101036.03;;;-7.05;87.77
3780;BME280;1905;52.482;9.802;2022-12-16T08:56:48;101045.53;;;-7.01;88.59
3780;BME280;1905;52.482;9.802;2022-12-16T08:59:33;101039.03;;;-6.91;89.38
3780;BME280;1905;52.482;9.802;2022-12-16T09:02:20;101046.81;;;-6.88;89.56
3780;BME280;1905;52.482;9.802;2022-12-16T09:05:07;101058.22;;;-6.80;90.32
3780;BME280;1905;52.482;9.802;2022-12-16T09:07:57;101048.06;;;-6.76;90.39
3780;BME280;1905;52.482;9.802;2022-12-16T09:10:43;101055.31;;;-6.63;89.74
3780;BME280;1905;52.482;9.802;2022-12-16T09:13:28;101064.13;;;-6.54;91.07
3780;BME280;1905;52.482;9.802;2022-12-16T09:16:13;101057.53;;;-6.46;91.44
3780;BME280;1905;52.482;9.802;2022-12-16T09:18:58;101057.81;;;-6.37;91.82
3780;BME280;1905;52.482;9.802;2022-12-16T09:21:45;101055.53;;;-6.28;91.46
3780;BME280;1905;52.482;9.802;2022-12-16T09:24:30;101065.34;;;-6.15;92.86
3780;BME280;1905;52.482;9.802;2022-12-16T09:27:15;101072.50;;;-6.05;93.11
3780;BME280;1905;52.482;9.802;2022-12-16T09:30:00;101075.38;;;-5.94;93.55
3780;BME280;1905;52.482;9.802;2022-12-16T09:32:45;101067.91;;;-5.84;93.70
3780;BME280;1905;52.482;9.802;2022-12-16T09:35:35;101074.09;;;-5.79;93.64
3780;BME280;1905;52.482;9.802;2022-12-16T09:38:22;101079.47;;;-5.70;94.04
3780;BME280;1905;52.482;9.802;2022-12-16T09:41:31;101072.09;;;-5.58;94.18
3780;BME280;1905;52.482;9.802;2022-12-16T09:44:27;101081.72;;;-5.51;94.95
3780;BME280;1905;52.482;9.802;2022-12-16T09:47:21;101081.09;;;-5.42;93.19
3780;BME280;1905;52.482;9.802;2022-12-16T09:50:19;101089.91;;;-5.32;93.83
3780;BME280;1905;52.482;9.802;2022-12-16T09:53:09;101090.97;;;-5.24;93.58
3780;BME280;1905;52.482;9.802;2022-12-16T09:55:57;101088.75;;;-5.12;93.50
3780;BME280;1905;52.482;9.802;2022-12-16T09:58:45;101094.06;;;-5.06;93.01
3780;BME280;1905;52.482;9.802;2022-12-16T10:01:33;101096.84;;;-4.97;93.11
3780;BME280;1905;52.482;9.802;2022-12-16T10:04:21;101094.44;;;-4.91;93.11
3780;BME280;1905;52.482;9.802;2022-12-16T10:07:11;101099.91;;;-4.79;93.52
3780;BME280;1905;52.482;9.802;2022-12-16T10:10:10;101101.63;;;-4.78;92.69
3780;BME280;1905;52.482;9.802;2022-12-16T10:13:07;101107.00;;;-4.69;92.43
3780;BME280;1905;52.482;9.802;2022-12-16T10:16:02;101112.31;;;-4.63;91.00
3780;BME280;1905;52.482;9.802;2022-12-16T10:18:54;101111.59;;;-4.57;92.71
3780;BME280;1905;52.482;9.802;2022-12-16T10:21:46;101103.94;;;-4.53;92.56
3780;BME280;1905;52.482;9.802;2022-12-16T10:24:40;101106.69;;;-4.45;92.74
3780;BME280;1905;52.482;9.802;2022-12-16T10:27:37;101101.69;;;-4.41;92.75
3780;BME280;1905;52.482;9.802;2022-12-16T10:30:27;101100.91;;;-4.37;94.01
3780;BME280;1905;52.482;9.802;2022-12-16T10:33:14;101106.19;;;-4.31;92.53
3780;BME280;1905;52.482;9.802;2022-12-16T10:36:00;101099.38;;;-4.29;92.33
3780;BME280;1905;52.482;9.802;2022-12-16T10:38:44;101108.88;;;-4.26;92.76
3780;BME280;1905;52.482;9.802;2022-12-16T10:41:33;101105.56;;;-4.21;92.52
3780;BME280;1905;52.482;9.802;2022-12-16T10:44:23;101116.81;;;-4.18;92.59
3780;BME280;1905;52.482;9.802;2022-12-16T10:47:11;101112.56;;;-4.15;92.92
3780;BME280;1905;52.482;9.802;2022-12-16T10:49:57;101115.31;;;-4.07;93.75
3780;BME280;1905;52.482;9.802;2022-12-16T10:52:48;101109.31;;;-4.08;92.99
3780;BME280;1905;52.482;9.802;2022-12-16T10:55:41;101118.00;;;-4.03;92.77
3780;BME280;1905;52.482;9.802;2022-12-16T10:58:38;101108.66;;;-3.98;93.21
3780;BME280;1905;52.482;9.802;2022-12-16T11:01:27;101112.22;;;-3.91;92.71
3780;BME280;1905;52.482;9.802;2022-12-16T11:04:31;101106.22;;;-3.92;93.42
3780;BME280;1905;52.482;9.802;2022-12-16T11:07:30;101104.53;;;-3.90;93.11
3780;BME280;1905;52.482;9.802;2022-12-16T11:10:25;101122.75;;;-3.82;93.66
3780;BME280;1905;52.482;9.802;2022-12-16T11:13:15;101110.81;;;-3.77;93.32
3780;BME280;1905;52.482;9.802;2022-12-16T11:16:05;101118.66;;;-3.73;93.30
3780;BME280;1905;52.482;9.802;2022-12-16T11:18:51;101119.50;;;-3.72;93.04
3780;BME280;1905;52.482;9.802;2022-12-16T11:21:37;101117.94;;;-3.64;93.67
3780;BME280;1905;52.482;9.802;2022-12-16T11:24:23;101124.88;;;-3.63;92.82
3780;BME280;1905;52.482;9.802;2022-12-16T11:27:13;101121.53;;;-3.59;92.98
3780;BME280;1905;52.482;9.802;2022-12-16T11:30:00;101121.56;;;-3.56;93.27
3780;BME280;1905;52.482;9.802;2022-12-16T11:32:48;101125.13;;;-3.51;93.76
3780;BME280;1905;52.482;9.802;2022-12-16T11:35:37;101132.13;;;-3.44;93.20
3780;BME280;1905;52.482;9.802;2022-12-16T11:38:28;101126.22;;;-3.38;93.84
3780;BME280;1905;52.482;9.802;2022-12-16T11:41:23;101125.47;;;-3.33;93.87
3780;BME280;1905;52.482;9.802;2022-12-16T11:44:16;101127.31;;;-3.26;93.63
3780;BME280;1905;52.482;9.802;2022-12-16T11:47:05;101129.19;;;-3.19;94.24
3780;BME280;1905;52.482;9.802;2022-12-16T11:49:56;101132.66;;;-3.17;94.07
3780;BME280;1905;52.482;9.802;2022-12-16T11:52:45;101128.50;;;-3.09;94.60
3780;BME280;1905;52.482;9.802;2022-12-16T11:55:38;101121.75;;;-3.02;93.05
3780;BME280;1905;52.482;9.802;2022-12-16T11:58:41;101129.56;;;-2.99;93.65
3780;BME280;1905;52.482;9.802;2022-12-16T12:01:32;101115.06;;;-2.91;94.06
3780;BME280;1905;52.482;9.802;2022-12-16T12:04:21;101124.59;;;-2.88;93.59
3780;BME280;1905;52.482;9.802;2022-12-16T12:07:18;101126.41;;;-2.81;94.07
3780;BME280;1905;52.482;9.802;2022-12-16T12:10:24;101114.50;;;-2.73;93.93
3780;BME280;1905;52.482;9.802;2022-12-16T12:13:23;101119.66;;;-2.73;93.58
3780;BME280;1905;52.482;9.802;2022-12-16T12:16:23;101130.06;;;-2.70;94.35
3780;BME280;1905;52.482;9.802;2022-12-16T12:19:14;101125.88;;;-2.64;94.11
3780;BME280;1905;52.482;9.802;2022-12-16T12:22:12;101128.53;;;-2.59;93.71
3780;BME280;1905;52.482;9.802;2022-12-16T12:25:06;101142.38;;;-2.54;93.72
3780;BME280;1905;52.482;9.802;2022-12-16T12:27:59;101144.28;;;-2.44;93.72
3780;BME280;1905;52.482;9.802;2022-12-16T12:30:55;101141.75;;;-2.41;93.35
3780;BME280;1905;52.482;9.802;2022-12-16T12:33:56;101144.38;;;-2.38;93.21
3780;BME280;1905;52.482;9.802;2022-12-16T12:36:50;101149.66;;;-2.32;93.46
3780;BME280;1905;52.482;9.802;2022-12-16T12:39:44;101139.34;;;-2.29;94.10
3780;BME280;1905;52.482;9.802;2022-12-16T12:42:34;101151.47;;;-2.25;93.67
3780;BME280;1905;52.482;9.802;2022-12-16T12:45:37;101151.56;;;-2.19;93.52
3780;BME280;1905;52.482;9.802;2022-12-16T12:48:33;101153.38;;;-2.15;93.68
3780;BME280;1905;52.482;9.802;2022-12-16T12:51:28;101156.94;;;-2.07;93.52
3780;BME280;1905;52.482;9.802;2022-12-16T12:54:19;101161.31;;;-2.03;94.09
3780;BME280;1905;52.482;9.802;2022-12-16T12:57:10;101167.41;;;-1.98;93.98
3780;BME280;1905;52.482;9.802;2022-12-16T13:00:00;101165.69;;;-1.96;94.48
3780;BME280;1905;52.482;9.802;2022-12-16T13:02:52;101167.50;;;-1.92;94.01
3780;BME280;1905;52.482;9.802;2022-12-16T13:05:43;101163.25;;;-1.87;93.69
3780;BME280;1905;52.482;9.802;2022-12-16T13:08:31;101166.78;;;-1.83;93.33
3780;BME280;1905;52.482;9.802;2022-12-16T13:11:17;101171.16;;;-1.77;93.13
3780;BME280;1905;52.482;9.802;2022-12-16T13:17:28;101166.91;;;-1.71;93.43
3780;BME280;1905;52.482;9.802;2022-12-16T13:20:35;101173.06;;;-1.64;92.97
3780;BME280;1905;52.482;9.802;2022-12-16T13:23:28;101167.88;;;-1.64;93.53
3780;BME280;1905;52.482;9.802;2022-12-16T13:26:15;101173.09;;;-1.61;92.86
3780;BME280;1905;52.482;9.802;2022-12-16T13:29:05;101184.41;;;-1.55;93.11
3780;BME280;1905;52.482;9.802;2022-12-16T13:32:03;101188.75;;;-1.54;93.12
3780;BME280;1905;52.482;9.802;2022-12-16T13:35:02;101192.25;;;-1.50;93.09
3780;BME280;1905;52.482;9.802;2022-12-16T13:37:52;101192.28;;;-1.47;92.43
3780;BME280;1905;52.482;9.802;2022-12-16T13:40:49;101185.41;;;-1.44;92.52
3780;BME280;1905;52.482;9.802;2022-12-16T13:43:46;101190.63;;;-1.42;92.36
3780;BME280;1905;52.482;9.802;2022-12-16T13:46:40;101188.91;;;-1.40;92.64
3780;BME280;1905;52.482;9.802;2022-12-16T13:49:44;101191.53;;;-1.37;92.40
3780;BME280;1905;52.482;9.802;2022-12-16T13:52:41;101191.56;;;-1.36;92.25
3780;BME280;1905;52.482;9.802;2022-12-16T13:55:32;101195.06;;;-1.34;92.56
3780;BME280;1905;52.482;9.802;2022-12-16T13:58:25;101199.38;;;-1.33;92.46
3780;BME280;1905;52.482;9.802;2022-12-16T14:01:17;101202.84;;;-1.32;92.40
3780;BME280;1905;52.482;9.802;2022-12-16T14:04:07;101200.28;;;-1.29;92.31
3780;BME280;1905;52.482;9.802;2022-12-16T14:06:58;101206.34;;;-1.27;92.54
3780;BME280;1905;52.482;9.802;2022-12-16T14:09:52;101214.16;;;-1.26;92.06
3780;BME280;1905;52.482;9.802;2022-12-16T14:12:59;101212.44;;;-1.24;92.57
3780;BME280;1905;52.482;9.802;2022-12-16T14:15:55;101217.63;;;-1.24;92.32
3780;BME280;1905;52.482;9.802;2022-12-16T14:19:06;101229.75;;;-1.23;92.49
3780;BME280;1905;52.482;9.802;2022-12-16T14:22:01;101231.47;;;-1.22;92.00
3780;BME280;1905;52.482;9.802;2022-12-16T14:24:49;101232.34;;;-1.21;92.38
3780;BME280;1905;52.482;9.802;2022-12-16T14:27:36;101237.50;;;-1.21;91.45
3780;BME280;1905;52.482;9.802;2022-12-16T14:30:23;101237.56;;;-1.18;92.26
3780;BME280;1905;52.482;9.802;2022-12-16T14:33:18;101233.25;;;-1.17;91.92
3780;BME280;1905;52.482;9.802;2022-12-16T14:36:18;101235.84;;;-1.16;91.95
3780;BME280;1905;52.482;9.802;2022-12-16T14:39:06;101244.50;;;-1.17;92.07
3780;BME280;1905;52.482;9.802;2022-12-16T14:41:52;101255.69;;;-1.16;92.02
3780;BME280;1905;52.482;9.802;2022-12-16T14:44:39;101253.09;;;-1.18;92.52